sensor_id;sensor_type;location;lat;lon;timestamp;pressure;altitude;pressure_sealevel;temperature
45701;BMP280;36277;32.852;-116.998;2024-02-26T00:00:51;100220.72;;;24.72
45701;BMP280;36277;32.852;-116.998;2024-02-26T00:03:17;100211.34;;;24.73
45701;BMP280;36277;32.852;-116.998;2024-02-26T00:05:44;100195.66;;;24.73
45701;BMP280;36277;32.852;-116.998;2024-02-26T00:08:10;100192.69;;;24.75
45701;BMP280;36277;32.852;-116.998;2024-02-26T00:10:36;100196.50;;;24.74
45701;BMP280;36277;32.852;-116.998;2024-02-26T00:13:02;100200.13;;;24.74
45701;BMP280;36277;32.852;-116.998;2024-02-26T00:15:28;100210.97;;;24.76
45701;BMP280;36277;32.852;-116.998;2024-02-26T00:17:55;100208.41;;;24.74
45701;BMP280;36277;32.852;-116.998;2024-02-26T00:20:21;100221.16;;;24.75
45701;BMP280;36277;32.852;-116.998;2024-02-26T00:22:47;100220.94;;;24.77
45701;BMP280;36277;32.852;-116.998;2024-02-26T00:25:13;100208.41;;;24.74
45701;BMP280;36277;32.852;-116.998;2024-02-26T00:27:40;100225.81;;;24.75
45701;BMP280;36277;32.852;-116.998;2024-02-26T00:30:07;100214.38;;;24.78
45701;BMP280;36277;32.852;-116.998;2024-02-26T00:32:33;100209.72;;;24.78
45701;BMP280;36277;32.852;-116.998;2024-02-26T00:35:00;100202.28;;;24.79
45701;BMP280;36277;32.852;-116.998;2024-02-26T00:37:26;100201.44;;;24.78
45701;BMP280;36277;32.852;-116.998;2024-02-26T00:39:52;100197.81;;;24.78
45701;BMP280;36277;32.852;-116.998;2024-02-26T00:42:19;100198.69;;;24.78
45701;BMP280;36277;32.852;-116.998;2024-02-26T00:44:46;100204.66;;;24.82
45701;BMP280;36277;32.852;-116.998;2024-02-26T00:47:12;100201.72;;;24.83
45701;BMP280;36277;32.852;-116.998;2024-02-26T00:49:38;100203.63;;;24.83
45701;BMP280;36277;32.852;-116.998;2024-02-26T00:52:04;100213.59;;;24.84
45701;BMP280;36277;32.852;-116.998;2024-02-26T00:54:31;100214.94;;;24.88
45701;BMP280;36277;32.852;-116.998;2024-02-26T00:56:57;100211.78;;;24.91
45701;BMP280;36277;32.852;-116.998;2024-02-26T00:59:23;100208.63;;;24.94
45701;BMP280;36277;32.852;-116.998;2024-02-26T01:01:49;100200.13;;;24.95
45701;BMP280;36277;32.852;-116.998;2024-02-26T01:04:15;100213.28;;;24.93
45701;BMP280;36277;32.852;-116.998;2024-02-26T01:06:42;100210.72;;;24.92
45701;BMP280;36277;32.852;-116.998;2024-02-26T01:09:08;100204.81;;;24.95
45701;BMP280;36277;32.852;-116.998;2024-02-26T01:11:34;100208.63;;;24.94
45701;BMP280;36277;32.852;-116.998;2024-02-26T01:14:01;100203.50;;;24.91
45701;BMP280;36277;32.852;-116.998;2024-02-26T01:16:27;100199.28;;;24.95
45701;BMP280;36277;32.852;-116.998;2024-02-26T01:18:54;100195.66;;;24.94
45701;BMP280;36277;32.852;-116.998;2024-02-26T01:21:21;100211.16;;;24.95
45701;BMP280;36277;32.852;-116.998;2024-02-26T01:23:47;100203.75;;;24.96
45701;BMP280;36277;32.852;-116.998;2024-02-26T01:26:13;100200.56;;;24.99
45701;BMP280;36277;32.852;-116.998;2024-02-26T01:28:39;100195.53;;;25.02
45701;BMP280;36277;32.852;-116.998;2024-02-26T01:31:06;100184.28;;;25.04
45701;BMP280;36277;32.852;-116.998;2024-02-26T01:33:34;100180.84;;;25.02
45701;BMP280;36277;32.852;-116.998;2024-02-26T01:36:00;100170.41;;;24.97
45701;BMP280;36277;32.852;-116.998;2024-02-26T01:38:26;100178.91;;;24.96
45701;BMP280;36277;32.852;-116.998;2024-02-26T01:40:53;100186.75;;;24.99
45701;BMP280;36277;32.852;-116.998;2024-02-26T01:43:19;100187.44;;;25.01
45701;BMP280;36277;32.852;-116.998;2024-02-26T01:45:45;100198.47;;;25.01
45701;BMP280;36277;32.852;-116.998;2024-02-26T01:48:12;100198.56;;;25.07
45701;BMP280;36277;32.852;-116.998;2024-02-26T01:50:40;100186.03;;;25.11
45701;BMP280;36277;32.852;-116.998;2024-02-26T01:53:07;100189.66;;;25.12
45701;BMP280;36277;32.852;-116.998;2024-02-26T01:55:34;100195.97;;;25.06
45701;BMP280;36277;32.852;-116.998;2024-02-26T01:58:00;100193.28;;;25.12
45701;BMP280;36277;32.852;-116.998;2024-02-26T02:00:27;100193.97;;;25.14
45701;BMP280;36277;32.852;-116.998;2024-02-26T02:02:54;100174.03;;;25.19
45701;BMP280;36277;32.852;-116.998;2024-02-26T02:05:21;100177.47;;;25.21
45701;BMP280;36277;32.852;-116.998;2024-02-26T02:07:47;100188.50;;;25.21
45701;BMP280;36277;32.852;-116.998;2024-02-26T02:10:15;100193.63;;;25.24
45701;BMP280;36277;32.852;-116.998;2024-02-26T02:12:43;100186.41;;;25.23
45701;BMP280;36277;32.852;-116.998;2024-02-26T02:15:10;100201.47;;;25.20
45701;BMP280;36277;32.852;-116.998;2024-02-26T02:17:36;100180.88;;;25.23
45701;BMP280;36277;32.852;-116.998;2024-02-26T02:20:02;100176.19;;;25.23
45701;BMP280;36277;32.852;-116.998;2024-02-26T02:22:29;100182.13;;;25.20
45701;BMP280;36277;32.852;-116.998;2024-02-26T02:24:57;100171.50;;;25.24
45701;BMP280;36277;32.852;-116.998;2024-02-26T02:27:25;100170.69;;;25.23
45701;BMP280;36277;32.852;-116.998;2024-02-26T02:29:51;100173.22;;;25.25
45701;BMP280;36277;32.852;-116.998;2024-02-26T02:32:19;100172.38;;;25.24
45701;BMP280;36277;32.852;-116.998;2024-02-26T02:34:45;100162.19;;;25.25
45701;BMP280;36277;32.852;-116.998;2024-02-26T02:37:12;100164.75;;;25.26
45701;BMP280;36277;32.852;-116.998;2024-02-26T02:39:38;100166.00;;;25.24
45701;BMP280;36277;32.852;-116.998;2024-02-26T02:42:05;100183.22;;;25.26
45701;BMP280;36277;32.852;-116.998;2024-02-26T02:44:31;100180.88;;;25.23
45701;BMP280;36277;32.852;-116.998;2024-02-26T02:46:57;100190.84;;;25.24
45701;BMP280;36277;32.852;-116.998;2024-02-26T02:49:24;100202.56;;;25.26
45701;BMP280;36277;32.852;-116.998;2024-02-26T02:51:50;100191.06;;;25.22
45701;BMP280;36277;32.852;-116.998;2024-02-26T02:54:16;100188.50;;;25.21
45701;BMP280;36277;32.852;-116.998;2024-02-26T02:56:43;100185.53;;;25.22
45701;BMP280;36277;32.852;-116.998;2024-02-26T02:59:09;100175.38;;;25.23
45701;BMP280;36277;32.852;-116.998;2024-02-26T03:01:35;100165.56;;;25.20
45701;BMP280;36277;32.852;-116.998;2024-02-26T03:04:01;100160.69;;;25.22
45701;BMP280;36277;32.852;-116.998;2024-02-26T03:06:27;100157.06;;;25.22
45701;BMP280;36277;32.852;-116.998;2024-02-26T03:08:54;100159.63;;;25.23
45701;BMP280;36277;32.852;-116.998;2024-02-26T03:11:20;100157.06;;;25.22
45701;BMP280;36277;32.852;-116.998;2024-02-26T03:13:47;100166.84;;;25.24
45701;BMP280;36277;32.852;-116.998;2024-02-26T03:16:13;100164.72;;;25.20
45701;BMP280;36277;32.852;-116.998;2024-02-26T03:18:40;100173.66;;;25.22
45701;BMP280;36277;32.852;-116.998;2024-02-26T03:21:06;100190.63;;;25.19
45701;BMP280;36277;32.852;-116.998;2024-02-26T03:23:33;100179.56;;;25.19
45701;BMP280;36277;32.852;-116.998;2024-02-26T03:26:05;100174.94;;;25.26
45701;BMP280;36277;32.852;-116.998;2024-02-26T03:28:31;100189.56;;;25.20
45701;BMP280;36277;32.852;-116.998;2024-02-26T03:31:00;100191.94;;;25.23
45701;BMP280;36277;32.852;-116.998;2024-02-26T03:33:26;100205.09;;;25.21
45701;BMP280;36277;32.852;-116.998;2024-02-26T03:35:53;100209.75;;;25.20
45701;BMP280;36277;32.852;-116.998;2024-02-26T03:38:19;100184.22;;;25.18
45701;BMP280;36277;32.852;-116.998;2024-02-26T03:40:45;100193.56;;;25.17
45701;BMP280;36277;32.852;-116.998;2024-02-26T03:43:11;100211.31;;;25.08
45701;BMP280;36277;32.852;-116.998;2024-02-26T03:45:38;100217.91;;;25.07
45701;BMP280;36277;32.852;-116.998;2024-02-26T03:48:05;100223.50;;;25.14
45701;BMP280;36277;32.852;-116.998;2024-02-26T03:50:31;100231.78;;;25.14
45701;BMP280;36277;32.852;-116.998;2024-02-26T03:53:00;100230.44;;;25.10
45701;BMP280;36277;32.852;-116.998;2024-02-26T03:55:27;100237.00;;;25.09
45701;BMP280;36277;32.852;-116.998;2024-02-26T03:57:53;100238.06;;;25.08
45701;BMP280;36277;32.852;-116.998;2024-02-26T04:00:20;100242.53;;;25.09
45701;BMP280;36277;32.852;-116.998;2024-02-26T04:02:49;100239.38;;;25.12
45701;BMP280;36277;32.852;-116.998;2024-02-26T04:05:15;100238.28;;;25.06
45701;BMP280;36277;32.852;-116.998;2024-02-26T04:07:42;100246.63;;;25.13
45701;BMP280;36277;32.852;-116.998;2024-02-26T04:10:12;100259.03;;;25.17
45701;BMP280;36277;32.852;-116.998;2024-02-26T04:12:42;100261.97;;;25.15
45701;BMP280;36277;32.852;-116.998;2024-02-26T04:15:09;100266.13;;;25.11
45701;BMP280;36277;32.852;-116.998;2024-02-26T04:17:36;100271.47;;;25.13
45701;BMP280;36277;32.852;-116.998;2024-02-26T04:20:04;100260.81;;;25.10
45701;BMP280;36277;32.852;-116.998;2024-02-26T04:22:31;100252.53;;;25.10
45701;BMP280;36277;32.852;-116.998;2024-02-26T04:24:58;100250.44;;;25.12
45701;BMP280;36277;32.852;-116.998;2024-02-26T04:27:24;100244.03;;;25.11
45701;BMP280;36277;32.852;-116.998;2024-02-26T04:29:50;100235.97;;;25.10
45701;BMP280;36277;32.852;-116.998;2024-02-26T04:32:17;100233.00;;;25.11
45701;BMP280;36277;32.852;-116.998;2024-02-26T04:34:43;100220.44;;;25.09
45701;BMP280;36277;32.852;-116.998;2024-02-26T04:37:09;100223.19;;;25.09
45701;BMP280;36277;32.852;-116.998;2024-02-26T04:39:35;100234.25;;;25.09
45701;BMP280;36277;32.852;-116.998;2024-02-26T04:42:02;100240.81;;;25.08
45701;BMP280;36277;32.852;-116.998;2024-02-26T04:44:29;100247.41;;;25.07
45701;BMP280;36277;32.852;-116.998;2024-02-26T04:46:56;100258.44;;;25.07
45701;BMP280;36277;32.852;-116.998;2024-02-26T04:49:22;100263.97;;;25.07
45701;BMP280;36277;32.852;-116.998;2024-02-26T04:51:48;100270.53;;;25.06
45701;BMP280;36277;32.852;-116.998;2024-02-26T04:54:15;100282.63;;;25.05
45701;BMP280;36277;32.852;-116.998;2024-02-26T04:56:41;100307.72;;;25.03
45701;BMP280;36277;32.852;-116.998;2024-02-26T04:59:08;100302.34;;;25.02
45701;BMP280;36277;32.852;-116.998;2024-02-26T05:01:34;100290.66;;;25.00
45701;BMP280;36277;32.852;-116.998;2024-02-26T05:04:02;100306.84;;;25.03
45701;BMP280;36277;32.852;-116.998;2024-02-26T05:06:31;100299.16;;;24.98
45701;BMP280;36277;32.852;-116.998;2024-02-26T05:08:58;100312.94;;;24.98
45701;BMP280;36277;32.852;-116.998;2024-02-26T05:11:24;100322.88;;;24.93
45701;BMP280;36277;32.852;-116.998;2024-02-26T05:13:50;100325.63;;;24.93
45701;BMP280;36277;32.852;-116.998;2024-02-26T05:16:16;100336.19;;;24.89
45701;BMP280;36277;32.852;-116.998;2024-02-26T05:18:42;100341.72;;;24.89
45701;BMP280;36277;32.852;-116.998;2024-02-26T05:21:08;100335.16;;;24.90
45701;BMP280;36277;32.852;-116.998;2024-02-26T05:23:35;100319.84;;;24.88
45701;BMP280;36277;32.852;-116.998;2024-02-26T05:26:01;100321.28;;;24.84
45701;BMP280;36277;32.852;-116.998;2024-02-26T05:28:27;100325.09;;;24.83
45701;BMP280;36277;32.852;-116.998;2024-02-26T05:30:54;100343.75;;;24.81
45701;BMP280;36277;32.852;-116.998;2024-02-26T05:33:20;100351.66;;;24.84
45701;BMP280;36277;32.852;-116.998;2024-02-26T05:35:47;100361.84;;;24.83
45701;BMP280;36277;32.852;-116.998;2024-02-26T05:38:13;100365.66;;;24.82
45701;BMP280;36277;32.852;-116.998;2024-02-26T05:40:39;100367.81;;;24.87
45701;BMP280;36277;32.852;-116.998;2024-02-26T05:43:06;100370.13;;;24.83
45701;BMP280;36277;32.852;-116.998;2024-02-26T05:45:32;100383.81;;;24.77
45701;BMP280;36277;32.852;-116.998;2024-02-26T05:47:58;100373.66;;;24.77
45701;BMP280;36277;32.852;-116.998;2024-02-26T05:50:25;100361.72;;;24.77
45701;BMP280;36277;32.852;-116.998;2024-02-26T05:52:51;100380.41;;;24.75
45701;BMP280;36277;32.852;-116.998;2024-02-26T05:55:17;100376.13;;;24.72
45701;BMP280;36277;32.852;-116.998;2024-02-26T05:57:43;100364.03;;;24.73
45701;BMP280;36277;32.852;-116.998;2024-02-26T06:00:10;100366.13;;;24.71
45701;BMP280;36277;32.852;-116.998;2024-02-26T06:02:38;100374.41;;;24.71
45701;BMP280;36277;32.852;-116.998;2024-02-26T06:05:05;100379.09;;;24.71
45701;BMP280;36277;32.852;-116.998;2024-02-26T06:07:33;100375.66;;;24.69
45701;BMP280;36277;32.852;-116.998;2024-02-26T06:09:59;100379.47;;;24.68
45701;BMP280;36277;32.852;-116.998;2024-02-26T06:12:25;100371.38;;;24.66
45701;BMP280;36277;32.852;-116.998;2024-02-26T06:14:54;100362.91;;;24.68
45701;BMP280;36277;32.852;-116.998;2024-02-26T06:17:20;100361.38;;;24.65
45701;BMP280;36277;32.852;-116.998;2024-02-26T06:19:46;100366.88;;;24.65
45701;BMP280;36277;32.852;-116.998;2024-02-26T06:22:12;100355.19;;;24.63
45701;BMP280;36277;32.852;-116.998;2024-02-26T06:24:39;100361.97;;;24.61
45701;BMP280;36277;32.852;-116.998;2024-02-26T06:27:05;100355.41;;;24.62
45701;BMP280;36277;32.852;-116.998;2024-02-26T06:29:31;100354.53;;;24.61
45701;BMP280;36277;32.852;-116.998;2024-02-26T06:31:57;100357.28;;;24.61
45701;BMP280;36277;32.852;-116.998;2024-02-26T06:34:24;100356.59;;;24.59
45701;BMP280;36277;32.852;-116.998;2024-02-26T06:36:50;100341.97;;;24.59
45701;BMP280;36277;32.852;-116.998;2024-02-26T06:39:16;100335.63;;;24.58
45701;BMP280;36277;32.852;-116.998;2024-02-26T06:41:43;100336.66;;;24.57
45701;BMP280;36277;32.852;-116.998;2024-02-26T06:44:13;100339.41;;;24.57
45701;BMP280;36277;32.852;-116.998;2024-02-26T06:46:39;100345.31;;;24.54
45701;BMP280;36277;32.852;-116.998;2024-02-26T06:49:05;100353.59;;;24.54
45701;BMP280;36277;32.852;-116.998;2024-02-26T06:51:31;100360.16;;;24.53
45701;BMP280;36277;32.852;-116.998;2024-02-26T06:53:58;100358.44;;;24.52
45701;BMP280;36277;32.852;-116.998;2024-02-26T06:56:24;100363.97;;;24.52
45701;BMP280;36277;32.852;-116.998;2024-02-26T06:58:50;100367.78;;;24.51
45701;BMP280;36277;32.852;-116.998;2024-02-26T07:01:17;100373.28;;;24.51
45701;BMP280;36277;32.852;-116.998;2024-02-26T07:03:44;100366.22;;;24.49
45701;BMP280;36277;32.852;-116.998;2024-02-26T07:06:10;100369.00;;;24.49
45701;BMP280;36277;32.852;-116.998;2024-02-26T07:08:38;100345.19;;;24.48
45701;BMP280;36277;32.852;-116.998;2024-02-26T07:11:07;100354.16;;;24.50
45701;BMP280;36277;32.852;-116.998;2024-02-26T07:13:34;100361.25;;;24.44
45701;BMP280;36277;32.852;-116.998;2024-02-26T07:16:01;100349.75;;;24.41
45701;BMP280;36277;32.852;-116.998;2024-02-26T07:18:27;100352.16;;;24.44
45701;BMP280;36277;32.852;-116.998;2024-02-26T07:20:53;100343.19;;;24.42
45701;BMP280;36277;32.852;-116.998;2024-02-26T07:23:20;100343.19;;;24.42
45701;BMP280;36277;32.852;-116.998;2024-02-26T07:25:46;100339.56;;;24.41
45701;BMP280;36277;32.852;-116.998;2024-02-26T07:28:15;100327.69;;;24.41
45701;BMP280;36277;32.852;-116.998;2024-02-26T07:30:41;100324.25;;;24.39
45701;BMP280;36277;32.852;-116.998;2024-02-26T07:33:07;100327.88;;;24.39
45701;BMP280;36277;32.852;-116.998;2024-02-26T07:35:33;100329.97;;;24.37
45701;BMP280;36277;32.852;-116.998;2024-02-26T07:38:02;100339.47;;;24.35
45701;BMP280;36277;32.852;-116.998;2024-02-26T07:40:28;100345.84;;;24.35
45701;BMP280;36277;32.852;-116.998;2024-02-26T07:42:54;100343.06;;;24.35
45701;BMP280;36277;32.852;-116.998;2024-02-26T07:45:21;100329.50;;;24.34
45701;BMP280;36277;32.852;-116.998;2024-02-26T07:47:48;100338.59;;;24.34
45701;BMP280;36277;32.852;-116.998;2024-02-26T07:50:14;100325.22;;;24.31
45701;BMP280;36277;32.852;-116.998;2024-02-26T07:52:40;100321.59;;;24.31
45701;BMP280;36277;32.852;-116.998;2024-02-26T07:55:07;100325.41;;;24.30
45701;BMP280;36277;32.852;-116.998;2024-02-26T07:57:34;100316.44;;;24.28
45701;BMP280;36277;32.852;-116.998;2024-02-26T08:00:00;100302.88;;;24.26
45701;BMP280;36277;32.852;-116.998;2024-02-26T08:02:26;100309.44;;;24.25
45701;BMP280;36277;32.852;-116.998;2024-02-26T08:04:53;100317.69;;;24.25
45701;BMP280;36277;32.852;-116.998;2024-02-26T08:07:19;100326.34;;;24.22
45701;BMP280;36277;32.852;-116.998;2024-02-26T08:09:47;100327.19;;;24.23
45701;BMP280;36277;32.852;-116.998;2024-02-26T08:12:13;100318.28;;;24.21
45701;BMP280;36277;32.852;-116.998;2024-02-26T08:14:40;100314.66;;;24.20
45701;BMP280;36277;32.852;-116.998;2024-02-26T08:17:06;100311.06;;;24.20
45701;BMP280;36277;32.852;-116.998;2024-02-26T08:19:34;100316.75;;;24.18
45701;BMP280;36277;32.852;-116.998;2024-02-26T08:22:01;100321.41;;;24.18
45701;BMP280;36277;32.852;-116.998;2024-02-26T08:24:28;100319.88;;;24.15
45701;BMP280;36277;32.852;-116.998;2024-02-26T08:26:54;100314.38;;;24.15
45701;BMP280;36277;32.852;-116.998;2024-02-26T08:29:20;100323.00;;;24.13
45701;BMP280;36277;32.852;-116.998;2024-02-26T08:31:47;100337.66;;;24.13
45701;BMP280;36277;32.852;-116.998;2024-02-26T08:34:13;100332.31;;;24.12
45701;BMP280;36277;32.852;-116.998;2024-02-26T08:36:40;100341.63;;;24.11
45701;BMP280;36277;32.852;-116.998;2024-02-26T08:39:06;100328.72;;;24.11
45701;BMP280;36277;32.852;-116.998;2024-02-26T08:41:34;100329.09;;;24.08
45701;BMP280;36277;32.852;-116.998;2024-02-26T08:44:00;100337.38;;;24.08
45701;BMP280;36277;32.852;-116.998;2024-02-26T08:46:27;100334.63;;;24.08
45701;BMP280;36277;32.852;-116.998;2024-02-26T08:48:53;100328.44;;;24.06
45701;BMP280;36277;32.852;-116.998;2024-02-26T08:51:19;100317.41;;;24.06
45701;BMP280;36277;32.852;-116.998;2024-02-26T08:53:45;100325.00;;;24.04
45701;BMP280;36277;32.852;-116.998;2024-02-26T08:56:11;100339.84;;;24.03
45701;BMP280;36277;32.852;-116.998;2024-02-26T08:58:43;100341.53;;;24.04
45701;BMP280;36277;32.852;-116.998;2024-02-26T09:01:09;100340.03;;;24.02
45701;BMP280;36277;32.852;-116.998;2024-02-26T09:03:35;100352.94;;;24.01
45701;BMP280;36277;32.852;-116.998;2024-02-26T09:06:02;100351.22;;;24.00
45701;BMP280;36277;32.852;-116.998;2024-02-26T09:08:28;100363.31;;;23.99
45701;BMP280;36277;32.852;-116.998;2024-02-26T09:10:54;100361.59;;;23.98
45701;BMP280;36277;32.852;-116.998;2024-02-26T09:13:20;100356.28;;;23.97
45701;BMP280;36277;32.852;-116.998;2024-02-26T09:15:47;100355.41;;;23.96
45701;BMP280;36277;32.852;-116.998;2024-02-26T09:18:13;100357.53;;;23.94
45701;BMP280;36277;32.852;-116.998;2024-02-26T09:20:41;100331.00;;;23.93
45701;BMP280;36277;32.852;-116.998;2024-02-26T09:23:07;100311.69;;;23.93
45701;BMP280;36277;32.852;-116.998;2024-02-26T09:25:33;100312.91;;;23.91
45701;BMP280;36277;32.852;-116.998;2024-02-26T09:28:00;100316.53;;;23.91
45701;BMP280;36277;32.852;-116.998;2024-02-26T09:30:26;100328.63;;;23.90
45701;BMP280;36277;32.852;-116.998;2024-02-26T09:32:52;100322.44;;;23.88
45701;BMP280;36277;32.852;-116.998;2024-02-26T09:35:18;100309.50;;;23.89
45701;BMP280;36277;32.852;-116.998;2024-02-26T09:37:45;100306.94;;;23.87
45701;BMP280;36277;32.852;-116.998;2024-02-26T09:40:11;100298.84;;;23.86
45701;BMP280;36277;32.852;-116.998;2024-02-26T09:42:45;100300.38;;;23.88
45701;BMP280;36277;32.852;-116.998;2024-02-26T09:45:18;100285.72;;;23.88
45701;BMP280;36277;32.852;-116.998;2024-02-26T09:47:48;100281.63;;;23.84
45701;BMP280;36277;32.852;-116.998;2024-02-26T09:50:17;100268.72;;;23.84
45701;BMP280;36277;32.852;-116.998;2024-02-26T09:52:43;100255.50;;;23.80
45701;BMP280;36277;32.852;-116.998;2024-02-26T09:55:10;100262.72;;;23.81
45701;BMP280;36277;32.852;-116.998;2024-02-26T09:57:37;100271.84;;;23.81
45701;BMP280;36277;32.852;-116.998;2024-02-26T10:00:04;100272.88;;;23.80
45701;BMP280;36277;32.852;-116.998;2024-02-26T10:02:36;100264.44;;;23.82
45701;BMP280;36277;32.852;-116.998;2024-02-26T10:05:05;100254.97;;;23.76
45701;BMP280;36277;32.852;-116.998;2024-02-26T10:07:34;100262.06;;;23.79
45701;BMP280;36277;32.852;-116.998;2024-02-26T10:10:01;100257.94;;;23.75
45701;BMP280;36277;32.852;-116.998;2024-02-26T10:12:29;100262.56;;;23.74
45701;BMP280;36277;32.852;-116.998;2024-02-26T10:14:59;100278.28;;;23.74
45701;BMP280;36277;32.852;-116.998;2024-02-26T10:17:26;100272.75;;;23.74
45701;BMP280;36277;32.852;-116.998;2024-02-26T10:19:54;100266.38;;;23.73
45701;BMP280;36277;32.852;-116.998;2024-02-26T10:22:22;100266.75;;;23.70
45701;BMP280;36277;32.852;-116.998;2024-02-26T10:24:48;100265.06;;;23.69
45701;BMP280;36277;32.852;-116.998;2024-02-26T10:27:15;100252.31;;;23.68
45701;BMP280;36277;32.852;-116.998;2024-02-26T10:29:41;100249.56;;;23.68
45701;BMP280;36277;32.852;-116.998;2024-02-26T10:32:09;100236.63;;;23.69
45701;BMP280;36277;32.852;-116.998;2024-02-26T10:34:36;100230.66;;;23.65
45701;BMP280;36277;32.852;-116.998;2024-02-26T10:37:07;100219.44;;;23.67
45701;BMP280;36277;32.852;-116.998;2024-02-26T10:39:36;100224.78;;;23.68
45701;BMP280;36277;32.852;-116.998;2024-02-26T10:42:03;100217.94;;;23.64
45701;BMP280;36277;32.852;-116.998;2024-02-26T10:44:35;100209.81;;;23.63
45701;BMP280;36277;32.852;-116.998;2024-02-26T10:47:01;100218.09;;;23.63
45701;BMP280;36277;32.852;-116.998;2024-02-26T10:49:28;100232.75;;;23.63
45701;BMP280;36277;32.852;-116.998;2024-02-26T10:51:56;100225.16;;;23.65
45701;BMP280;36277;32.852;-116.998;2024-02-26T10:54:26;100231.03;;;23.62
45701;BMP280;36277;32.852;-116.998;2024-02-26T10:56:56;100236.03;;;23.59
45701;BMP280;36277;32.852;-116.998;2024-02-26T10:59:23;100238.16;;;23.57
45701;BMP280;36277;32.852;-116.998;2024-02-26T11:01:50;100229.69;;;23.58
45701;BMP280;36277;32.852;-116.998;2024-02-26T11:04:17;100223.50;;;23.56
45701;BMP280;36277;32.852;-116.998;2024-02-26T11:06:45;100223.31;;;23.58
45701;BMP280;36277;32.852;-116.998;2024-02-26T11:09:13;100219.91;;;23.56
45701;BMP280;36277;32.852;-116.998;2024-02-26T11:11:40;100228.34;;;23.54
45701;BMP280;36277;32.852;-116.998;2024-02-26T11:14:08;100223.88;;;23.53
45701;BMP280;36277;32.852;-116.998;2024-02-26T11:16:36;100231.09;;;23.54
45701;BMP280;36277;32.852;-116.998;2024-02-26T11:19:04;100224.94;;;23.52
45701;BMP280;36277;32.852;-116.998;2024-02-26T11:21:32;100221.50;;;23.50
45701;BMP280;36277;32.852;-116.998;2024-02-26T11:24:16;100212.03;;;23.53
45701;BMP280;36277;32.852;-116.998;2024-02-26T11:26:54;100213.06;;;23.52
45701;BMP280;36277;32.852;-116.998;2024-02-26T11:29:29;100200.50;;;23.49
45701;BMP280;36277;32.852;-116.998;2024-02-26T11:32:00;100200.69;;;23.48
45701;BMP280;36277;32.852;-116.998;2024-02-26T11:34:27;100205.34;;;23.47
45701;BMP280;36277;32.852;-116.998;2024-02-26T11:36:54;100218.06;;;23.48
45701;BMP280;36277;32.852;-116.998;2024-02-26T11:39:20;100208.28;;;23.46
45701;BMP280;36277;32.852;-116.998;2024-02-26T11:41:46;100202.78;;;23.46
45701;BMP280;36277;32.852;-116.998;2024-02-26T11:44:13;100215.53;;;23.47
45701;BMP280;36277;32.852;-116.998;2024-02-26T11:46:40;100209.34;;;23.45
45701;BMP280;36277;32.852;-116.998;2024-02-26T11:51:55;100225.03;;;23.44
45701;BMP280;36277;32.852;-116.998;2024-02-26T11:59:56;100235.75;;;23.39
45701;BMP280;36277;32.852;-116.998;2024-02-26T12:02:51;100238.97;;;23.43
45701;BMP280;36277;32.852;-116.998;2024-02-26T12:05:24;100270.88;;;23.37
45701;BMP280;36277;32.852;-116.998;2024-02-26T12:07:59;100281.53;;;23.40
45701;BMP280;36277;32.852;-116.998;2024-02-26T12:13:10;100267.56;;;23.42
45701;BMP280;36277;32.852;-116.998;2024-02-26T12:15:39;100256.06;;;23.38
45701;BMP280;36277;32.852;-116.998;2024-02-26T12:18:07;100254.34;;;23.37
45701;BMP280;36277;32.852;-116.998;2024-02-26T12:20:35;100254.03;;;23.32
45701;BMP280;36277;32.852;-116.998;2024-02-26T12:23:03;100254.53;;;23.36
45701;BMP280;36277;32.852;-116.998;2024-02-26T12:25:33;100261.28;;;23.33
45701;BMP280;36277;32.852;-116.998;2024-02-26T12:27:59;100264.03;;;23.33
45701;BMP280;36277;32.852;-116.998;2024-02-26T12:30:26;100267.81;;;23.32
45701;BMP280;36277;32.852;-116.998;2024-02-26T12:32:57;100274.16;;;23.33
45701;BMP280;36277;32.852;-116.998;2024-02-26T12:35:28;100275.03;;;23.33
45701;BMP280;36277;32.852;-116.998;2024-02-26T12:37:55;100262.88;;;23.28
45701;BMP280;36277;32.852;-116.998;2024-02-26T12:40:21;100252.69;;;23.28
45701;BMP280;36277;32.852;-116.998;2024-02-26T12:42:47;100254.09;;;23.24
45701;BMP280;36277;32.852;-116.998;2024-02-26T12:45:15;100257.72;;;23.25
45701;BMP280;36277;32.852;-116.998;2024-02-26T12:47:43;100262.38;;;23.24
45701;BMP280;36277;32.852;-116.998;2024-02-26T12:50:10;100281.66;;;23.24
45701;BMP280;36277;32.852;-116.998;2024-02-26T12:52:42;100291.47;;;23.27
45701;BMP280;36277;32.852;-116.998;2024-02-26T12:55:13;100283.06;;;23.20
45701;BMP280;36277;32.852;-116.998;2024-02-26T12:57:41;100272.72;;;23.22
45701;BMP280;36277;32.852;-116.998;2024-02-26T13:00:12;100263.59;;;23.22
45701;BMP280;36277;32.852;-116.998;2024-02-26T13:02:41;100261.41;;;23.17
45701;BMP280;36277;32.852;-116.998;2024-02-26T13:05:12;100251.44;;;23.16
45701;BMP280;36277;32.852;-116.998;2024-02-26T13:07:46;100261.22;;;23.19
45701;BMP280;36277;32.852;-116.998;2024-02-26T13:10:16;100270.03;;;23.14
45701;BMP280;36277;32.852;-116.998;2024-02-26T13:12:44;100272.81;;;23.14
45701;BMP280;36277;32.852;-116.998;2024-02-26T13:15:18;100269.69;;;23.17
45701;BMP280;36277;32.852;-116.998;2024-02-26T13:17:45;100257.31;;;23.13
45701;BMP280;36277;32.852;-116.998;2024-02-26T13:20:12;100260.25;;;23.12
45701;BMP280;36277;32.852;-116.998;2024-02-26T13:22:39;100263.88;;;23.12
45701;BMP280;36277;32.852;-116.998;2024-02-26T13:25:06;100247.16;;;23.14
45701;BMP280;36277;32.852;-116.998;2024-02-26T13:27:35;100251.31;;;23.10
45701;BMP280;36277;32.852;-116.998;2024-02-26T13:30:12;100223.03;;;23.16
45701;BMP280;36277;32.852;-116.998;2024-02-26T13:32:40;100215.34;;;23.11